createdAt,value
2019-03-19T00:00:55.097Z,3.25
2019-03-19T00:11:54.100Z,3.13
2019-03-19T00:22:55.661Z,2.75
2019-03-19T00:33:59.593Z,2.62
2019-03-19T00:44:58.689Z,2.96
2019-03-19T00:55:56.540Z,2.95
2019-03-19T01:06:59.031Z,3.06
2019-03-19T01:18:00.528Z,2.98
2019-03-19T01:29:03.865Z,3.11
2019-03-19T01:40:03.358Z,3.09
2019-03-19T01:51:05.084Z,3.16
2019-03-19T02:02:08.529Z,2.91
2019-03-19T02:13:06.425Z,2.86
2019-03-19T02:24:04.806Z,2.86
2019-03-19T02:35:07.036Z,2.63
2019-03-19T02:46:07.559Z,2.62
2019-03-19T02:57:07.341Z,2.48
2019-03-19T03:08:11.838Z,2.42
2019-03-19T03:19:02.452Z,2.55
2019-03-19T03:30:02.397Z,2.46
2019-03-19T03:41:00.057Z,2.66
2019-03-19T03:51:57.858Z,2.57
2019-03-19T04:02:59.719Z,2.57
2019-03-19T04:13:57.972Z,2.41
2019-03-19T04:25:00.573Z,2.37
2019-03-19T04:36:01.808Z,2.41
2019-03-19T04:46:59.274Z,2.24
2019-03-19T04:57:59.213Z,2.39
2019-03-19T05:09:01.258Z,2.32
2019-03-19T05:20:03.222Z,2.35
2019-03-19T05:31:04.219Z,2.38
2019-03-19T05:42:07.330Z,2.39
2019-03-19T05:53:10.168Z,2.60
2019-03-19T06:04:11.556Z,2.98
2019-03-19T06:15:16.331Z,3.24
2019-03-19T06:26:20.833Z,3.29
2019-03-19T06:37:21.812Z,3.75
2019-03-19T06:48:24.258Z,4.08
2019-03-19T06:59:26.309Z,4.55
2019-03-19T07:10:28.697Z,4.74
2019-03-19T07:21:25.471Z,4.87
2019-03-19T07:32:25.342Z,5.47
2019-03-19T07:43:29.896Z,5.89
2019-03-19T07:54:34.886Z,6.29
2019-03-19T08:05:34.154Z,6.62
2019-03-19T08:16:32.260Z,6.59
2019-03-19T08:27:36.963Z,7.08
2019-03-19T08:38:42.016Z,7.83
2019-03-19T08:49:42.909Z,8.09
2019-03-19T09:00:38.282Z,8.22
2019-03-19T09:11:38.226Z,8.57
2019-03-19T09:22:38.921Z,9.10
2019-03-19T09:33:41.872Z,9.16
2019-03-19T09:44:40.793Z,8.87
2019-03-19T09:55:43.383Z,9.06
2019-03-19T10:06:47.299Z,9.00
2019-03-19T10:17:46.112Z,9.49
2019-03-19T10:28:43.727Z,9.14
2019-03-19T10:39:46.893Z,9.19
2019-03-19T10:50:49.079Z,9.03
2019-03-19T11:01:51.543Z,9.56
2019-03-19T11:12:50.179Z,8.69
2019-03-19T11:23:50.968Z,9.03
2019-03-19T11:34:55.910Z,8.95
2019-03-19T11:45:58.267Z,8.72
2019-03-19T11:57:02.028Z,8.66
2019-03-19T12:08:06.103Z,8.61
2019-03-19T12:19:09.539Z,9.16
2019-03-19T12:30:21.708Z,9.55
2019-03-19T12:41:21.229Z,9.40
2019-03-19T12:52:21.222Z,9.27
2019-03-19T13:03:23.906Z,9.32
2019-03-19T13:14:23.802Z,9.64
2019-03-19T13:25:21.577Z,9.46
2019-03-19T13:36:24.159Z,9.09
2019-03-19T13:47:23.042Z,9.10
2019-03-19T13:58:29.891Z,11.32
2019-03-19T14:09:45.530Z,14.29
2019-03-19T14:20:42.018Z,11.71
2019-03-19T14:31:39.989Z,9.85
2019-03-19T14:42:39.653Z,9.27
2019-03-19T14:53:41.880Z,8.65
2019-03-19T15:04:42.857Z,7.52
2019-03-19T15:15:43.566Z,7.02
2019-03-19T15:26:44.646Z,7.34
2019-03-19T15:37:47.502Z,7.05
2019-03-19T15:48:49.299Z,6.96
2019-03-19T15:59:52.944Z,6.84
2019-03-19T16:10:51.426Z,6.83
2019-03-19T16:21:52.791Z,6.72
2019-03-19T16:32:57.077Z,6.68
2019-03-19T16:43:57.707Z,6.54
2019-03-19T16:54:55.644Z,6.33
2019-03-19T17:05:58.907Z,6.15
2019-03-19T17:16:54.318Z,6.18
2019-03-19T17:27:52.793Z,5.93
2019-03-19T17:38:50.327Z,5.71
2019-03-19T17:49:47.034Z,5.42
2019-03-19T18:00:45.772Z,5.13
2019-03-19T18:11:43.977Z,4.88
2019-03-19T18:22:45.042Z,4.62
2019-03-19T18:33:41.816Z,4.65
2019-03-19T18:44:41.839Z,4.58
2019-03-19T18:55:39.003Z,4.52
2019-03-19T19:06:39.501Z,4.74
2019-03-19T19:17:37.137Z,4.64
2019-03-19T19:28:37.378Z,4.64
2019-03-19T19:39:35.874Z,4.61
2019-03-19T19:50:35.723Z,4.59
2019-03-19T20:01:34.293Z,4.56
2019-03-19T20:12:34.276Z,4.66
2019-03-19T20:23:31.236Z,4.47
2019-03-19T20:34:28.141Z,4.61
2019-03-19T20:45:28.827Z,4.43
2019-03-19T20:56:28.932Z,4.50
2019-03-19T21:07:27.261Z,4.50
2019-03-19T21:18:28.000Z,4.66
2019-03-19T21:29:30.261Z,4.46
2019-03-19T21:40:31.513Z,4.46
2019-03-19T21:51:27.736Z,4.54
2019-03-19T22:02:25.856Z,4.46
2019-03-19T22:13:23.834Z,4.56
2019-03-19T22:24:24.805Z,4.50
2019-03-19T22:35:23.498Z,4.37
2019-03-19T22:46:22.196Z,4.52
2019-03-19T22:57:24.517Z,4.56
2019-03-19T23:08:26.965Z,4.32
2019-03-19T23:19:23.894Z,4.26
2019-03-19T23:30:24.998Z,4.32
2019-03-19T23:41:22.702Z,4.26
2019-03-19T23:52:20.177Z,4.28
